sensor_id;sensor_type;location;lat;lon;timestamp;P1;durP1;ratioP1;P2;durP2;ratioP2
34920;SDS011;21128;50.016;20.002;2022-07-11T00:01:12;7.22;;;1.77;;
34920;SDS011;21128;50.016;20.002;2022-07-11T00:03:42;7.43;;;2.37;;
34920;SDS011;21128;50.016;20.002;2022-07-11T00:06:09;11.10;;;2.65;;
34920;SDS011;21128;50.016;20.002;2022-07-11T00:11:15;6.83;;;2.00;;
34920;SDS011;21128;50.016;20.002;2022-07-11T00:16:08;5.60;;;2.40;;
34920;SDS011;21128;50.016;20.002;2022-07-11T00:18:35;7.55;;;1.82;;
34920;SDS011;21128;50.016;20.002;2022-07-11T00:21:02;6.55;;;2.08;;
34920;SDS011;21128;50.016;20.002;2022-07-11T00:23:29;6.67;;;2.10;;
34920;SDS011;21128;50.016;20.002;2022-07-11T00:25:56;4.53;;;1.77;;
34920;SDS011;21128;50.016;20.002;2022-07-11T00:28:23;8.67;;;2.20;;
34920;SDS011;21128;50.016;20.002;2022-07-11T00:31:06;4.25;;;2.00;;
34920;SDS011;21128;50.016;20.002;2022-07-11T00:33:34;7.47;;;2.10;;
34920;SDS011;21128;50.016;20.002;2022-07-11T00:36:01;4.95;;;1.80;;
34920;SDS011;21128;50.016;20.002;2022-07-11T00:38:28;5.95;;;1.80;;
34920;SDS011;21128;50.016;20.002;2022-07-11T00:40:55;5.00;;;2.00;;
34920;SDS011;21128;50.016;20.002;2022-07-11T00:43:32;5.07;;;2.30;;
34920;SDS011;21128;50.016;20.002;2022-07-11T00:46:00;8.57;;;2.10;;
34920;SDS011;21128;50.016;20.002;2022-07-11T00:48:27;7.75;;;2.25;;
34920;SDS011;21128;50.016;20.002;2022-07-11T00:50:56;4.73;;;2.40;;
34920;SDS011;21128;50.016;20.002;2022-07-11T00:53:24;8.23;;;2.70;;
34920;SDS011;21128;50.016;20.002;2022-07-11T00:55:58;6.13;;;2.50;;
34920;SDS011;21128;50.016;20.002;2022-07-11T00:58:26;11.60;;;2.70;;
34920;SDS011;21128;50.016;20.002;2022-07-11T01:00:53;6.20;;;2.33;;
34920;SDS011;21128;50.016;20.002;2022-07-11T01:03:20;8.67;;;2.03;;
34920;SDS011;21128;50.016;20.002;2022-07-11T01:05:47;5.37;;;2.22;;
34920;SDS011;21128;50.016;20.002;2022-07-11T01:08:20;6.20;;;2.00;;
34920;SDS011;21128;50.016;20.002;2022-07-11T01:10:46;4.40;;;1.60;;
34920;SDS011;21128;50.016;20.002;2022-07-11T01:13:13;5.40;;;2.10;;
34920;SDS011;21128;50.016;20.002;2022-07-11T01:15:40;7.03;;;2.03;;
34920;SDS011;21128;50.016;20.002;2022-07-11T01:18:07;6.35;;;2.40;;
34920;SDS011;21128;50.016;20.002;2022-07-11T01:20:34;8.40;;;1.87;;
34920;SDS011;21128;50.016;20.002;2022-07-11T01:23:07;8.17;;;2.07;;
34920;SDS011;21128;50.016;20.002;2022-07-11T01:25:33;6.97;;;2.23;;
34920;SDS011;21128;50.016;20.002;2022-07-11T01:28:02;4.75;;;1.70;;
34920;SDS011;21128;50.016;20.002;2022-07-11T01:30:44;4.50;;;2.07;;
34920;SDS011;21128;50.016;20.002;2022-07-11T01:33:11;7.33;;;1.90;;
34920;SDS011;21128;50.016;20.002;2022-07-11T01:35:38;5.13;;;1.70;;
34920;SDS011;21128;50.016;20.002;2022-07-11T01:38:05;3.55;;;2.20;;
34920;SDS011;21128;50.016;20.002;2022-07-11T01:40:31;6.03;;;1.57;;
34920;SDS011;21128;50.016;20.002;2022-07-11T01:42:58;8.10;;;2.37;;
34920;SDS011;21128;50.016;20.002;2022-07-11T01:45:25;6.60;;;1.83;;
34920;SDS011;21128;50.016;20.002;2022-07-11T01:47:52;8.70;;;2.33;;
34920;SDS011;21128;50.016;20.002;2022-07-11T01:50:18;6.43;;;2.33;;
34920;SDS011;21128;50.016;20.002;2022-07-11T01:52:45;5.00;;;2.33;;
34920;SDS011;21128;50.016;20.002;2022-07-11T01:55:12;4.57;;;2.00;;
34920;SDS011;21128;50.016;20.002;2022-07-11T01:57:46;7.30;;;2.03;;
34920;SDS011;21128;50.016;20.002;2022-07-11T02:00:13;13.00;;;2.13;;
34920;SDS011;21128;50.016;20.002;2022-07-11T02:02:40;5.13;;;2.30;;
34920;SDS011;21128;50.016;20.002;2022-07-11T02:05:07;4.80;;;2.08;;
34920;SDS011;21128;50.016;20.002;2022-07-11T02:07:34;6.55;;;1.87;;
34920;SDS011;21128;50.016;20.002;2022-07-11T02:10:27;11.90;;;2.33;;
34920;SDS011;21128;50.016;20.002;2022-07-11T02:12:59;6.97;;;3.00;;
34920;SDS011;21128;50.016;20.002;2022-07-11T02:15:33;5.57;;;2.10;;
34920;SDS011;21128;50.016;20.002;2022-07-11T02:18:00;6.87;;;2.03;;
34920;SDS011;21128;50.016;20.002;2022-07-11T02:20:27;4.70;;;1.80;;
34920;SDS011;21128;50.016;20.002;2022-07-11T02:22:54;4.80;;;2.22;;
34920;SDS011;21128;50.016;20.002;2022-07-11T02:25:22;5.23;;;2.37;;
34920;SDS011;21128;50.016;20.002;2022-07-11T02:27:49;9.70;;;2.17;;
34920;SDS011;21128;50.016;20.002;2022-07-11T02:30:16;4.45;;;1.95;;
34920;SDS011;21128;50.016;20.002;2022-07-11T02:33:03;8.80;;;2.40;;
34920;SDS011;21128;50.016;20.002;2022-07-11T02:35:31;9.00;;;2.20;;
34920;SDS011;21128;50.016;20.002;2022-07-11T02:37:57;5.85;;;2.40;;
34920;SDS011;21128;50.016;20.002;2022-07-11T02:40:24;12.20;;;2.33;;
34920;SDS011;21128;50.016;20.002;2022-07-11T02:42:53;9.18;;;2.22;;
34920;SDS011;21128;50.016;20.002;2022-07-11T02:45:21;6.20;;;2.27;;
34920;SDS011;21128;50.016;20.002;2022-07-11T02:47:49;10.20;;;2.65;;
34920;SDS011;21128;50.016;20.002;2022-07-11T02:50:16;5.20;;;1.80;;
34920;SDS011;21128;50.016;20.002;2022-07-11T02:52:42;7.33;;;2.30;;
34920;SDS011;21128;50.016;20.002;2022-07-11T02:55:10;6.60;;;2.37;;
34920;SDS011;21128;50.016;20.002;2022-07-11T02:57:38;7.17;;;2.27;;
34920;SDS011;21128;50.016;20.002;2022-07-11T03:00:07;13.35;;;2.40;;
34920;SDS011;21128;50.016;20.002;2022-07-11T03:02:37;6.77;;;2.60;;
34920;SDS011;21128;50.016;20.002;2022-07-11T03:05:03;14.20;;;3.20;;
34920;SDS011;21128;50.016;20.002;2022-07-11T03:07:38;9.00;;;2.80;;
34920;SDS011;21128;50.016;20.002;2022-07-11T03:10:05;8.00;;;2.87;;
34920;SDS011;21128;50.016;20.002;2022-07-11T03:12:33;9.13;;;2.60;;
34920;SDS011;21128;50.016;20.002;2022-07-11T03:14:59;10.80;;;2.63;;
34920;SDS011;21128;50.016;20.002;2022-07-11T03:17:32;5.47;;;2.20;;
34920;SDS011;21128;50.016;20.002;2022-07-11T03:19:59;8.80;;;2.30;;
34920;SDS011;21128;50.016;20.002;2022-07-11T03:22:27;11.23;;;3.13;;
34920;SDS011;21128;50.016;20.002;2022-07-11T03:24:54;7.30;;;2.90;;
34920;SDS011;21128;50.016;20.002;2022-07-11T03:27:21;4.70;;;1.90;;
34920;SDS011;21128;50.016;20.002;2022-07-11T03:29:48;9.20;;;2.70;;
34920;SDS011;21128;50.016;20.002;2022-07-11T03:32:35;6.50;;;2.20;;
34920;SDS011;21128;50.016;20.002;2022-07-11T03:35:02;10.73;;;3.17;;
34920;SDS011;21128;50.016;20.002;2022-07-11T03:37:48;10.33;;;3.33;;
34920;SDS011;21128;50.016;20.002;2022-07-11T03:40:16;12.97;;;2.97;;
34920;SDS011;21128;50.016;20.002;2022-07-11T03:42:43;6.03;;;2.53;;
34920;SDS011;21128;50.016;20.002;2022-07-11T03:45:11;7.73;;;2.33;;
34920;SDS011;21128;50.016;20.002;2022-07-11T03:47:38;14.23;;;3.00;;
34920;SDS011;21128;50.016;20.002;2022-07-11T03:50:05;8.90;;;2.73;;
34920;SDS011;21128;50.016;20.002;2022-07-11T03:52:32;9.90;;;3.00;;
34920;SDS011;21128;50.016;20.002;2022-07-11T03:54:59;8.60;;;2.60;;
34920;SDS011;21128;50.016;20.002;2022-07-11T03:57:26;5.77;;;2.57;;
34920;SDS011;21128;50.016;20.002;2022-07-11T03:59:53;8.80;;;2.80;;
34920;SDS011;21128;50.016;20.002;2022-07-11T04:02:26;10.13;;;2.40;;
34920;SDS011;21128;50.016;20.002;2022-07-11T04:04:53;8.13;;;2.30;;
34920;SDS011;21128;50.016;20.002;2022-07-11T04:07:26;11.85;;;2.90;;
34920;SDS011;21128;50.016;20.002;2022-07-11T04:09:56;9.20;;;3.33;;
34920;SDS011;21128;50.016;20.002;2022-07-11T04:12:23;7.85;;;2.50;;
34920;SDS011;21128;50.016;20.002;2022-07-11T04:14:50;10.70;;;3.17;;
34920;SDS011;21128;50.016;20.002;2022-07-11T04:17:23;5.33;;;2.60;;
34920;SDS011;21128;50.016;20.002;2022-07-11T04:19:50;6.25;;;2.50;;
34920;SDS011;21128;50.016;20.002;2022-07-11T04:22:18;8.17;;;3.10;;
34920;SDS011;21128;50.016;20.002;2022-07-11T04:24:45;7.60;;;2.83;;
34920;SDS011;21128;50.016;20.002;2022-07-11T04:27:12;9.83;;;2.77;;
34920;SDS011;21128;50.016;20.002;2022-07-11T04:29:38;9.90;;;2.90;;
34920;SDS011;21128;50.016;20.002;2022-07-11T04:32:25;8.93;;;2.07;;
34920;SDS011;21128;50.016;20.002;2022-07-11T04:34:52;7.40;;;2.70;;
34920;SDS011;21128;50.016;20.002;2022-07-11T04:37:20;8.63;;;2.87;;
34920;SDS011;21128;50.016;20.002;2022-07-11T04:39:47;6.57;;;2.70;;
34920;SDS011;21128;50.016;20.002;2022-07-11T04:42:20;14.37;;;2.80;;
34920;SDS011;21128;50.016;20.002;2022-07-11T04:44:47;10.10;;;2.80;;
34920;SDS011;21128;50.016;20.002;2022-07-11T04:47:14;5.45;;;2.60;;
34920;SDS011;21128;50.016;20.002;2022-07-11T04:49:41;8.60;;;2.37;;
34920;SDS011;21128;50.016;20.002;2022-07-11T04:52:13;5.50;;;2.40;;
34920;SDS011;21128;50.016;20.002;2022-07-11T04:54:40;5.80;;;2.50;;
34920;SDS011;21128;50.016;20.002;2022-07-11T04:57:07;8.25;;;2.40;;
34920;SDS011;21128;50.016;20.002;2022-07-11T04:59:34;5.17;;;2.33;;
34920;SDS011;21128;50.016;20.002;2022-07-11T05:02:00;6.53;;;2.87;;
34920;SDS011;21128;50.016;20.002;2022-07-11T05:04:34;8.00;;;2.43;;
34920;SDS011;21128;50.016;20.002;2022-07-11T05:07:01;6.37;;;2.67;;
34920;SDS011;21128;50.016;20.002;2022-07-11T05:09:28;8.27;;;2.57;;
34920;SDS011;21128;50.016;20.002;2022-07-11T05:11:54;11.50;;;3.45;;
34920;SDS011;21128;50.016;20.002;2022-07-11T05:14:21;6.23;;;2.43;;
34920;SDS011;21128;50.016;20.002;2022-07-11T05:16:48;8.87;;;2.70;;
34920;SDS011;21128;50.016;20.002;2022-07-11T05:19:21;6.37;;;2.20;;
34920;SDS011;21128;50.016;20.002;2022-07-11T05:21:48;8.90;;;2.60;;
34920;SDS011;21128;50.016;20.002;2022-07-11T05:24:21;9.93;;;2.67;;
34920;SDS011;21128;50.016;20.002;2022-07-11T05:29:15;11.43;;;3.40;;
34920;SDS011;21128;50.016;20.002;2022-07-11T05:32:02;8.30;;;3.00;;
34920;SDS011;21128;50.016;20.002;2022-07-11T05:34:29;10.00;;;2.70;;
34920;SDS011;21128;50.016;20.002;2022-07-11T05:37:02;10.83;;;3.20;;
34920;SDS011;21128;50.016;20.002;2022-07-11T05:39:29;12.13;;;3.20;;
34920;SDS011;21128;50.016;20.002;2022-07-11T05:44:29;9.55;;;3.27;;
34920;SDS011;21128;50.016;20.002;2022-07-11T05:47:00;7.83;;;3.00;;
34920;SDS011;21128;50.016;20.002;2022-07-11T05:49:30;9.93;;;2.90;;
34920;SDS011;21128;50.016;20.002;2022-07-11T05:51:58;10.53;;;3.07;;
34920;SDS011;21128;50.016;20.002;2022-07-11T05:54:26;13.33;;;3.33;;
34920;SDS011;21128;50.016;20.002;2022-07-11T05:56:52;6.28;;;2.33;;
34920;SDS011;21128;50.016;20.002;2022-07-11T05:59:19;9.80;;;2.87;;
34920;SDS011;21128;50.016;20.002;2022-07-11T06:01:46;9.05;;;2.70;;
34920;SDS011;21128;50.016;20.002;2022-07-11T06:04:19;7.30;;;2.50;;
34920;SDS011;21128;50.016;20.002;2022-07-11T06:06:46;8.57;;;2.57;;
34920;SDS011;21128;50.016;20.002;2022-07-11T06:09:13;7.67;;;2.60;;
34920;SDS011;21128;50.016;20.002;2022-07-11T06:11:41;11.35;;;2.90;;
34920;SDS011;21128;50.016;20.002;2022-07-11T06:14:08;12.70;;;2.50;;
34920;SDS011;21128;50.016;20.002;2022-07-11T06:16:34;7.83;;;2.80;;
34920;SDS011;21128;50.016;20.002;2022-07-11T06:19:07;8.43;;;2.53;;
34920;SDS011;21128;50.016;20.002;2022-07-11T06:21:34;11.20;;;3.00;;
34920;SDS011;21128;50.016;20.002;2022-07-11T06:24:01;10.90;;;3.20;;
34920;SDS011;21128;50.016;20.002;2022-07-11T06:26:34;6.50;;;2.70;;
34920;SDS011;21128;50.016;20.002;2022-07-11T06:29:01;12.67;;;3.40;;
34920;SDS011;21128;50.016;20.002;2022-07-11T06:31:48;9.23;;;2.87;;
34920;SDS011;21128;50.016;20.002;2022-07-11T06:34:15;10.45;;;2.95;;
34920;SDS011;21128;50.016;20.002;2022-07-11T06:36:42;8.83;;;3.55;;
34920;SDS011;21128;50.016;20.002;2022-07-11T06:39:09;10.40;;;3.17;;
34920;SDS011;21128;50.016;20.002;2022-07-11T06:41:35;11.20;;;3.47;;
34920;SDS011;21128;50.016;20.002;2022-07-11T06:44:02;11.90;;;3.53;;
34920;SDS011;21128;50.016;20.002;2022-07-11T06:46:29;8.87;;;3.00;;
34920;SDS011;21128;50.016;20.002;2022-07-11T06:48:56;12.03;;;4.43;;
34920;SDS011;21128;50.016;20.002;2022-07-11T06:51:23;8.45;;;3.27;;
34920;SDS011;21128;50.016;20.002;2022-07-11T06:53:51;7.80;;;3.20;;
34920;SDS011;21128;50.016;20.002;2022-07-11T06:56:18;18.35;;;4.08;;
34920;SDS011;21128;50.016;20.002;2022-07-11T06:58:44;11.63;;;3.97;;
34920;SDS011;21128;50.016;20.002;2022-07-11T07:01:11;13.13;;;3.83;;
34920;SDS011;21128;50.016;20.002;2022-07-11T07:03:38;9.20;;;3.13;;
34920;SDS011;21128;50.016;20.002;2022-07-11T07:06:11;6.20;;;3.05;;
34920;SDS011;21128;50.016;20.002;2022-07-11T07:08:44;12.63;;;3.73;;
34920;SDS011;21128;50.016;20.002;2022-07-11T07:11:18;12.15;;;3.40;;
34920;SDS011;21128;50.016;20.002;2022-07-11T07:13:45;15.13;;;3.43;;
34920;SDS011;21128;50.016;20.002;2022-07-11T07:16:14;9.17;;;3.30;;
34920;SDS011;21128;50.016;20.002;2022-07-11T07:18:41;16.10;;;3.13;;
34920;SDS011;21128;50.016;20.002;2022-07-11T07:21:09;8.47;;;3.00;;
34920;SDS011;21128;50.016;20.002;2022-07-11T07:23:36;10.32;;;3.83;;
34920;SDS011;21128;50.016;20.002;2022-07-11T07:26:04;7.63;;;3.33;;
34920;SDS011;21128;50.016;20.002;2022-07-11T07:28:37;9.10;;;3.03;;
34920;SDS011;21128;50.016;20.002;2022-07-11T07:31:26;7.33;;;3.07;;
34920;SDS011;21128;50.016;20.002;2022-07-11T07:33:53;6.57;;;2.97;;
34920;SDS011;21128;50.016;20.002;2022-07-11T07:36:20;10.27;;;2.40;;
34920;SDS011;21128;50.016;20.002;2022-07-11T07:38:46;6.83;;;2.35;;
34920;SDS011;21128;50.016;20.002;2022-07-11T07:41:14;12.10;;;3.50;;
34920;SDS011;21128;50.016;20.002;2022-07-11T07:43:42;13.22;;;2.75;;
34920;SDS011;21128;50.016;20.002;2022-07-11T07:46:09;8.60;;;2.50;;
34920;SDS011;21128;50.016;20.002;2022-07-11T07:48:37;6.83;;;2.70;;
34920;SDS011;21128;50.016;20.002;2022-07-11T07:51:04;6.93;;;2.73;;
34920;SDS011;21128;50.016;20.002;2022-07-11T07:53:31;6.93;;;2.50;;
34920;SDS011;21128;50.016;20.002;2022-07-11T07:55:58;14.30;;;3.70;;
34920;SDS011;21128;50.016;20.002;2022-07-11T07:58:25;8.90;;;3.00;;
34920;SDS011;21128;50.016;20.002;2022-07-11T08:00:58;9.90;;;3.40;;
34920;SDS011;21128;50.016;20.002;2022-07-11T08:03:51;8.33;;;3.13;;
34920;SDS011;21128;50.016;20.002;2022-07-11T08:06:19;9.97;;;3.13;;
34920;SDS011;21128;50.016;20.002;2022-07-11T08:08:46;13.00;;;4.03;;
34920;SDS011;21128;50.016;20.002;2022-07-11T08:11:13;10.33;;;2.80;;
34920;SDS011;21128;50.016;20.002;2022-07-11T08:13:40;7.67;;;3.08;;
34920;SDS011;21128;50.016;20.002;2022-07-11T08:16:08;8.37;;;2.70;;
34920;SDS011;21128;50.016;20.002;2022-07-11T08:18:35;9.03;;;3.10;;
34920;SDS011;21128;50.016;20.002;2022-07-11T08:21:09;6.33;;;2.57;;
34920;SDS011;21128;50.016;20.002;2022-07-11T08:23:36;8.30;;;3.60;;
34920;SDS011;21128;50.016;20.002;2022-07-11T08:26:04;7.43;;;1.80;;
34920;SDS011;21128;50.016;20.002;2022-07-11T08:28:37;10.57;;;1.80;;
34920;SDS011;21128;50.016;20.002;2022-07-11T08:31:04;7.07;;;1.43;;
34920;SDS011;21128;50.016;20.002;2022-07-11T08:33:38;7.37;;;1.77;;
34920;SDS011;21128;50.016;20.002;2022-07-11T08:36:05;6.62;;;1.15;;
34920;SDS011;21128;50.016;20.002;2022-07-11T08:38:33;9.40;;;1.90;;
34920;SDS011;21128;50.016;20.002;2022-07-11T08:40:59;5.50;;;1.70;;
34920;SDS011;21128;50.016;20.002;2022-07-11T08:43:27;12.73;;;1.83;;
34920;SDS011;21128;50.016;20.002;2022-07-11T08:45:58;3.37;;;1.70;;
34920;SDS011;21128;50.016;20.002;2022-07-11T08:48:25;7.17;;;2.00;;
34920;SDS011;21128;50.016;20.002;2022-07-11T08:50:54;8.53;;;1.90;;
34920;SDS011;21128;50.016;20.002;2022-07-11T08:53:22;8.30;;;1.97;;
34920;SDS011;21128;50.016;20.002;2022-07-11T08:55:48;9.80;;;2.10;;
34920;SDS011;21128;50.016;20.002;2022-07-11T08:58:16;8.73;;;1.80;;
34920;SDS011;21128;50.016;20.002;2022-07-11T09:00:44;7.17;;;2.13;;
34920;SDS011;21128;50.016;20.002;2022-07-11T09:03:14;8.60;;;2.20;;
34920;SDS011;21128;50.016;20.002;2022-07-11T09:05:43;9.83;;;2.17;;
34920;SDS011;21128;50.016;20.002;2022-07-11T09:08:17;6.17;;;2.17;;
34920;SDS011;21128;50.016;20.002;2022-07-11T09:10:44;8.37;;;1.90;;
34920;SDS011;21128;50.016;20.002;2022-07-11T09:13:18;7.07;;;1.77;;
34920;SDS011;21128;50.016;20.002;2022-07-11T09:15:47;8.90;;;1.67;;
34920;SDS011;21128;50.016;20.002;2022-07-11T09:18:38;3.65;;;1.40;;
34920;SDS011;21128;50.016;20.002;2022-07-11T09:21:09;10.03;;;2.00;;
34920;SDS011;21128;50.016;20.002;2022-07-11T09:24:00;9.97;;;1.43;;
34920;SDS011;21128;50.016;20.002;2022-07-11T09:26:48;4.00;;;1.33;;
34920;SDS011;21128;50.016;20.002;2022-07-11T09:29:22;6.73;;;1.80;;
34920;SDS011;21128;50.016;20.002;2022-07-11T09:32:02;4.90;;;1.80;;
34920;SDS011;21128;50.016;20.002;2022-07-11T09:34:29;6.53;;;1.87;;
34920;SDS011;21128;50.016;20.002;2022-07-11T09:36:57;7.50;;;2.07;;
34920;SDS011;21128;50.016;20.002;2022-07-11T09:39:27;5.87;;;1.93;;
34920;SDS011;21128;50.016;20.002;2022-07-11T09:41:56;7.67;;;1.77;;
34920;SDS011;21128;50.016;20.002;2022-07-11T09:44:26;4.80;;;1.30;;
34920;SDS011;21128;50.016;20.002;2022-07-11T09:46:55;4.87;;;1.60;;
34920;SDS011;21128;50.016;20.002;2022-07-11T09:49:30;9.37;;;1.70;;
34920;SDS011;21128;50.016;20.002;2022-07-11T09:52:12;5.43;;;1.73;;
34920;SDS011;21128;50.016;20.002;2022-07-11T10:00:07;9.00;;;2.10;;
34920;SDS011;21128;50.016;20.002;2022-07-11T10:02:36;6.43;;;2.00;;
34920;SDS011;21128;50.016;20.002;2022-07-11T10:05:03;7.53;;;1.80;;
34920;SDS011;21128;50.016;20.002;2022-07-11T10:07:31;7.57;;;1.53;;
34920;SDS011;21128;50.016;20.002;2022-07-11T10:10:06;6.27;;;1.60;;
34920;SDS011;21128;50.016;20.002;2022-07-11T10:12:34;8.27;;;1.50;;
34920;SDS011;21128;50.016;20.002;2022-07-11T10:15:04;6.27;;;1.80;;
34920;SDS011;21128;50.016;20.002;2022-07-11T10:20:16;5.30;;;1.50;;
34920;SDS011;21128;50.016;20.002;2022-07-11T10:31:23;2.90;;;0.80;;
34920;SDS011;21128;50.016;20.002;2022-07-11T10:36:28;4.03;;;1.00;;
34920;SDS011;21128;50.016;20.002;2022-07-11T10:39:15;6.23;;;0.77;;
34920;SDS011;21128;50.016;20.002;2022-07-11T10:41:44;2.50;;;1.03;;
34920;SDS011;21128;50.016;20.002;2022-07-11T10:44:12;6.10;;;1.33;;
34920;SDS011;21128;50.016;20.002;2022-07-11T10:46:38;4.97;;;0.87;;
34920;SDS011;21128;50.016;20.002;2022-07-11T10:51:55;4.63;;;2.10;;
34920;SDS011;21128;50.016;20.002;2022-07-11T10:59:58;2.77;;;0.63;;
34920;SDS011;21128;50.016;20.002;2022-07-11T11:04:59;3.80;;;0.77;;
34920;SDS011;21128;50.016;20.002;2022-07-11T11:15:33;3.43;;;0.83;;
34920;SDS011;21128;50.016;20.002;2022-07-11T11:23:24;3.70;;;1.20;;
34920;SDS011;21128;50.016;20.002;2022-07-11T11:25:52;3.17;;;0.80;;
34920;SDS011;21128;50.016;20.002;2022-07-11T11:28:19;5.90;;;1.50;;
34920;SDS011;21128;50.016;20.002;2022-07-11T11:30:54;5.23;;;1.13;;
34920;SDS011;21128;50.016;20.002;2022-07-11T11:33:38;4.23;;;0.90;;
34920;SDS011;21128;50.016;20.002;2022-07-11T11:36:09;3.37;;;1.30;;
34920;SDS011;21128;50.016;20.002;2022-07-11T11:38:37;4.40;;;0.80;;
34920;SDS011;21128;50.016;20.002;2022-07-11T11:41:06;7.40;;;1.27;;
34920;SDS011;21128;50.016;20.002;2022-07-11T11:43:35;4.43;;;1.00;;
34920;SDS011;21128;50.016;20.002;2022-07-11T11:46:02;6.23;;;1.10;;
34920;SDS011;21128;50.016;20.002;2022-07-11T11:51:07;3.30;;;0.90;;
34920;SDS011;21128;50.016;20.002;2022-07-11T11:53:38;6.43;;;1.03;;
34920;SDS011;21128;50.016;20.002;2022-07-11T11:56:14;2.40;;;0.75;;
34920;SDS011;21128;50.016;20.002;2022-07-11T11:58:44;4.50;;;1.23;;
34920;SDS011;21128;50.016;20.002;2022-07-11T12:01:12;5.80;;;2.35;;
34920;SDS011;21128;50.016;20.002;2022-07-11T12:03:51;7.27;;;2.97;;
34920;SDS011;21128;50.016;20.002;2022-07-11T12:06:21;3.35;;;1.20;;
34920;SDS011;21128;50.016;20.002;2022-07-11T12:08:50;2.40;;;0.83;;
34920;SDS011;21128;50.016;20.002;2022-07-11T12:11:17;4.27;;;0.90;;
34920;SDS011;21128;50.016;20.002;2022-07-11T12:13:57;2.85;;;0.80;;
34920;SDS011;21128;50.016;20.002;2022-07-11T12:16:25;3.47;;;1.20;;
34920;SDS011;21128;50.016;20.002;2022-07-11T12:19:09;2.90;;;0.80;;
34920;SDS011;21128;50.016;20.002;2022-07-11T12:21:41;6.37;;;0.98;;
34920;SDS011;21128;50.016;20.002;2022-07-11T12:24:11;6.23;;;1.53;;
34920;SDS011;21128;50.016;20.002;2022-07-11T12:26:41;3.43;;;1.07;;
34920;SDS011;21128;50.016;20.002;2022-07-11T12:29:10;3.50;;;1.10;;
34920;SDS011;21128;50.016;20.002;2022-07-11T12:34:26;4.33;;;0.90;;
34920;SDS011;21128;50.016;20.002;2022-07-11T12:37:09;7.20;;;1.55;;
34920;SDS011;21128;50.016;20.002;2022-07-11T12:39:53;2.30;;;0.70;;
34920;SDS011;21128;50.016;20.002;2022-07-11T12:42:26;2.93;;;0.60;;
34920;SDS011;21128;50.016;20.002;2022-07-11T12:44:55;2.57;;;0.80;;
34920;SDS011;21128;50.016;20.002;2022-07-11T12:47:32;3.07;;;0.80;;
34920;SDS011;21128;50.016;20.002;2022-07-11T12:50:01;5.07;;;0.83;;
34920;SDS011;21128;50.016;20.002;2022-07-11T12:52:38;4.07;;;1.93;;
34920;SDS011;21128;50.016;20.002;2022-07-11T12:55:07;2.87;;;1.20;;
34920;SDS011;21128;50.016;20.002;2022-07-11T12:57:38;2.57;;;1.00;;
34920;SDS011;21128;50.016;20.002;2022-07-11T13:00:11;1.60;;;0.60;;
34920;SDS011;21128;50.016;20.002;2022-07-11T13:02:49;1.37;;;0.70;;
34920;SDS011;21128;50.016;20.002;2022-07-11T13:05:16;2.80;;;0.80;;
34920;SDS011;21128;50.016;20.002;2022-07-11T13:07:43;4.47;;;0.60;;
34920;SDS011;21128;50.016;20.002;2022-07-11T13:10:29;2.43;;;0.70;;
34920;SDS011;21128;50.016;20.002;2022-07-11T13:13:15;2.20;;;1.10;;
34920;SDS011;21128;50.016;20.002;2022-07-11T13:15:50;4.60;;;1.10;;
34920;SDS011;21128;50.016;20.002;2022-07-11T13:18:17;3.37;;;1.00;;
34920;SDS011;21128;50.016;20.002;2022-07-11T13:20:44;1.47;;;0.60;;
34920;SDS011;21128;50.016;20.002;2022-07-11T13:23:11;1.87;;;0.70;;
34920;SDS011;21128;50.016;20.002;2022-07-11T13:25:37;2.65;;;0.85;;
34920;SDS011;21128;50.016;20.002;2022-07-11T13:28:04;1.60;;;0.50;;
34920;SDS011;21128;50.016;20.002;2022-07-11T13:30:33;2.00;;;0.90;;
34920;SDS011;21128;50.016;20.002;2022-07-11T13:33:13;3.40;;;0.80;;
34920;SDS011;21128;50.016;20.002;2022-07-11T13:35:40;4.77;;;0.97;;
34920;SDS011;21128;50.016;20.002;2022-07-11T13:38:07;2.30;;;1.05;;
34920;SDS011;21128;50.016;20.002;2022-07-11T13:40:34;2.50;;;0.77;;
34920;SDS011;21128;50.016;20.002;2022-07-11T13:43:01;3.27;;;0.90;;
34920;SDS011;21128;50.016;20.002;2022-07-11T13:45:28;6.30;;;1.20;;
34920;SDS011;21128;50.016;20.002;2022-07-11T13:48:03;3.33;;;1.67;;
34920;SDS011;21128;50.016;20.002;2022-07-11T13:50:30;4.40;;;0.80;;
34920;SDS011;21128;50.016;20.002;2022-07-11T13:52:57;2.83;;;0.73;;
34920;SDS011;21128;50.016;20.002;2022-07-11T13:55:25;5.20;;;1.00;;
34920;SDS011;21128;50.016;20.002;2022-07-11T13:57:56;2.27;;;0.80;;
34920;SDS011;21128;50.016;20.002;2022-07-11T14:00:25;1.70;;;0.60;;
34920;SDS011;21128;50.016;20.002;2022-07-11T14:02:52;2.73;;;0.70;;
34920;SDS011;21128;50.016;20.002;2022-07-11T14:05:19;1.87;;;0.60;;
34920;SDS011;21128;50.016;20.002;2022-07-11T14:07:47;1.70;;;0.63;;
34920;SDS011;21128;50.016;20.002;2022-07-11T14:10:14;3.77;;;0.70;;
34920;SDS011;21128;50.016;20.002;2022-07-11T14:12:41;5.43;;;0.40;;
34920;SDS011;21128;50.016;20.002;2022-07-11T14:15:14;5.30;;;0.70;;
34920;SDS011;21128;50.016;20.002;2022-07-11T14:17:41;4.17;;;0.70;;
34920;SDS011;21128;50.016;20.002;2022-07-11T14:20:08;1.07;;;0.50;;
34920;SDS011;21128;50.016;20.002;2022-07-11T14:22:36;0.87;;;0.40;;
34920;SDS011;21128;50.016;20.002;2022-07-11T14:25:03;2.93;;;0.80;;
34920;SDS011;21128;50.016;20.002;2022-07-11T14:27:30;2.95;;;0.60;;
34920;SDS011;21128;50.016;20.002;2022-07-11T14:30:07;1.37;;;0.60;;
34920;SDS011;21128;50.016;20.002;2022-07-11T14:32:47;1.63;;;0.53;;
34920;SDS011;21128;50.016;20.002;2022-07-11T14:35:20;1.77;;;0.67;;
34920;SDS011;21128;50.016;20.002;2022-07-11T14:37:47;1.70;;;0.60;;
34920;SDS011;21128;50.016;20.002;2022-07-11T14:40:14;2.17;;;0.53;;
34920;SDS011;21128;50.016;20.002;2022-07-11T14:42:42;2.33;;;0.50;;
34920;SDS011;21128;50.016;20.002;2022-07-11T14:45:09;2.57;;;0.60;;
34920;SDS011;21128;50.016;20.002;2022-07-11T14:47:37;1.92;;;0.80;;
34920;SDS011;21128;50.016;20.002;2022-07-11T14:50:04;1.55;;;0.47;;
34920;SDS011;21128;50.016;20.002;2022-07-11T14:52:35;1.00;;;0.20;;
34920;SDS011;21128;50.016;20.002;2022-07-11T14:55:02;2.47;;;0.37;;
34920;SDS011;21128;50.016;20.002;2022-07-11T14:57:29;1.37;;;0.30;;
34920;SDS011;21128;50.016;20.002;2022-07-11T14:59:56;1.33;;;0.23;;
34920;SDS011;21128;50.016;20.002;2022-07-11T15:02:23;1.93;;;0.50;;
34920;SDS011;21128;50.016;20.002;2022-07-11T15:05:09;0.90;;;0.50;;
34920;SDS011;21128;50.016;20.002;2022-07-11T15:07:36;0.63;;;0.40;;
34920;SDS011;21128;50.016;20.002;2022-07-11T15:10:22;2.95;;;0.50;;
34920;SDS011;21128;50.016;20.002;2022-07-11T15:13:07;2.00;;;0.30;;
34920;SDS011;21128;50.016;20.002;2022-07-11T15:15:48;2.95;;;0.70;;
34920;SDS011;21128;50.016;20.002;2022-07-11T15:18:14;3.27;;;0.50;;
34920;SDS011;21128;50.016;20.002;2022-07-11T15:20:41;1.35;;;0.30;;
34920;SDS011;21128;50.016;20.002;2022-07-11T15:23:08;1.95;;;0.40;;
34920;SDS011;21128;50.016;20.002;2022-07-11T15:25:35;3.57;;;0.50;;
34920;SDS011;21128;50.016;20.002;2022-07-11T15:28:02;4.93;;;0.80;;
34920;SDS011;21128;50.016;20.002;2022-07-11T15:30:29;2.53;;;0.63;;
34920;SDS011;21128;50.016;20.002;2022-07-11T15:33:16;2.13;;;0.50;;
34920;SDS011;21128;50.016;20.002;2022-07-11T15:35:43;3.90;;;0.50;;
34920;SDS011;21128;50.016;20.002;2022-07-11T15:38:17;5.47;;;0.80;;
34920;SDS011;21128;50.016;20.002;2022-07-11T15:40:43;2.60;;;0.65;;
34920;SDS011;21128;50.016;20.002;2022-07-11T15:43:10;1.53;;;0.60;;
34920;SDS011;21128;50.016;20.002;2022-07-11T15:45:37;1.87;;;0.60;;
34920;SDS011;21128;50.016;20.002;2022-07-11T15:48:04;1.37;;;0.40;;